Kanawha Falls, WV (25115)

14:41 EDT le 01 septembre 2014 (GMT -0400)
KWVGLENF2 | Change Station
CLOSE
Current Station
Stations météorologiques personnelles
Location: Glen Ferris, WV
Altitude: 676 ft
Stations météo à proximité

Alt. 676 ft 38.15 °N, 81.22 °W | Updated 7 minutes ago

Nuageux
Nuageux
88.8 ° F
Paraît 95 ° F
N
0.0
Vent Variable Vent de SE
Gusts 0.0 mph

Aujourd'hui
Haut(e) -- | Bas -- ° F
--% Risque de précip.
Hier
Haut(e) -- | Bas -- ° F
Precip. -- pouce
6:54 AM 7:54 PM
Lune montante, 43% visible
Pression 30.05 pouce
Visibilité 10.0 Miles terrestres
Nuages Peu 2900 ft
Nuages épars 3600 ft
Nuages épars 4300 ft
indice de chaleur 95 ° F
Point de rosée 72 ° F
Humidité 57%
Précipitations 0.00 pouce
Profondeur de la couche neigeuse Non disponible.
UV 8 sur 12
Pollen 9.00 sur 12
Qualité de l'air Non disponible.
Flu Activity Non disponible.
METAR KBKW 011751Z AUTO 28013G20KT 10SM FEW029 SCT036 SCT043 27/17 A3017 RMK AO2 SLP176 60001 T02670172 10267 20200 58010 TSNO

More Conditions Fewer Conditions

Pression 30.05 pouce
Visibilité 10.0 Miles terrestres
Nuages Peu 2900 ft
Nuages épars 3600 ft
Nuages épars 4300 ft
indice de chaleur 95 ° F
Point de rosée 72 ° F
Humidité 57%
Précipitations 0.00 pouce
Profondeur de la couche neigeuse Non disponible.
UV 8 sur 12
Pollen 9.00 sur 12
Qualité de l'air Non disponible.
Flu Activity Non disponible.
METAR KBKW 011751Z AUTO 28013G20KT 10SM FEW029 SCT036 SCT043 27/17 A3017 RMK AO2 SLP176 60001 T02670172 10267 20200 58010 TSNO

More Conditions Fewer Conditions

10-Day Weather Forecast

Almanac

Astronomie

Sep. 01, 2014 Lever Coucher
Temps réel 06:54 EDT 19:54 EDT
Crépuscule civil 06:27 EDT 20:21 EDT
Crépuscule nautique 05:55 EDT 20:53 EDT
Crépuscule astronomique 05:21 EDT 21:26 EDT
Lune 13:32 EDT Pas de coucher de lune
Durée de lumière visible 13h 53m
Longueur du jour
12h 59m
Tomorrow will be 2m 21s shorter.
Lune montante, 43% of the Moon is Illuminated
Aujourd'hui
Lune montante
Sep 2
Premier quartier
Sep 8
Pleine lune
Sep 15
Dernier quartier
Sep 24
Nouveau

Extrêmes aujourd'hui

State Highs State Lows

Community

WunderPhotos

Upload Photos

1,749,359 Photos téléchargées !

Nearby

Épaisseur de neige

Station Depth Altitude
Pas de nouvelles chutes de neige

Activité sismique

Ville Distance Mag. Time & Date
No recent earthquake activity has been reported nearby.
Minimum magnitude displayed is 2.5.

Températures des eaux côtières

Lieu Température
Aucun rapport de station

Stations météo à proximité